EGLLEGJB

Guest
Details From EGLL - London Heathrow
To EGJB - Guernsey
Flight Number -
Tags Generated
Created
Modified
Stats Distance 147 nm / 271 km
Max Altitude 0 ft / 0 m
Waypoints 2
Social Downloads 3
Likes 0
Share VATSIM

Download

Looking for another format? Having issues loading an existing format? Contact us
Advertisement - Login to hide

Notes

Generated

Route

EGLL EGJB

ID Type Via Altitude Latitude Longitude Leg Dist Tot Dist Heading (true) Name
O EGLL APT - 0 ft / 0 m 51.46477˚ -0.48695˚ - 0 nm - -
O EGJB APT - 0 ft / 0 m 49.43467˚ -2.61204˚ 146 nm 146 nm 215° / 213° -

Altitude Profile

Advertisement - Login to hide

EGLL

Details ICAO EGLL (LHR)
Name London Heathrow
Region United Kingdom
Timezone Europe/London (UTC+1.0)
Stats Elevation 83 ft / 25 m (AMSL)
Location 51.471218° -0.460978°
Runways 2
Magnetic Variation 0.494° W

METAR

EGLL 261550Z AUTO 07013KT 9999 NCD 26/15 Q1017

Decode

TAF

TAF AMD EGLL 261424Z 2614/2718 06012KT 9999 SCT025 TEMPO 2614/2618 08015G25KT PROB40 TEMPO 2622/2706 08015G25KT 3000 +TSRAGS BKN014 BKN045CB TEMPO 2711/2718 7000 SHRA PROB40 TEMPO 2711/2718 3000 +TSRAGR BKN014 BKN025CB

Decode

Departure Runways

ID Width Length Bearing (true) Bearing (mag) Surface Threshold Offset Overrun Length
09L 164 ft / 50 m 12,811 ft / 3,905 m 89.64° 90.13° Asphalt 1,004 ft / 306 m 0 ft / 0 m
09R 164 ft / 50 m 12,019 ft / 3,663 m 89.67° 90.16° Asphalt 1,007 ft / 307 m 0 ft / 0 m
27L 164 ft / 50 m 12,019 ft / 3,663 m 269.71° 270.20° Asphalt 0 ft / 0 m 69 ft / 21 m
27R 164 ft / 50 m 12,811 ft / 3,905 m 269.69° 270.18° Asphalt 0 ft / 0 m 69 ft / 21 m

EGJB

Details ICAO EGJB (GCI)
Name Guernsey
Region United Kingdom
Timezone Europe/Guernsey (UTC+1.0)
Stats Elevation 336 ft / 102 m (AMSL)
Location 49.434955° -2.601970°
Runways 1
Magnetic Variation 1.003° W

METAR

EGJB 261550Z 06010KT 7000 NSC 20/16 Q1012

Decode

TAF

Not found

Destination Runways

ID Width Length Bearing (true) Bearing (mag) Surface Threshold Offset Overrun Length
09 148 ft / 45 m 4,753 ft / 1,449 m 87.56° 88.56° Asphalt 0 ft / 0 m 0 ft / 0 m
27 148 ft / 45 m 4,753 ft / 1,449 m 267.57° 268.57° Asphalt 0 ft / 0 m 272 ft / 83 m

Approach Navaids

Runway Type Ident Frequency Range Bearing (true) Bearing (mag) Slope Elevation
09 Localiser IUY 108.10 MHz 18 nm / 33 km 87.59° 88.60° - 336 ft / 102 m (AMSL)
09 Glidescope IUY 108.10 MHz 10 nm / 19 km 87.57° 88.57° 3.00° 336 ft / 102 m (AMSL)
27 Localiser IGH 108.10 MHz 18 nm / 33 km 267.57° 268.57° - 336 ft / 102 m (AMSL)
27 Glidescope IGH 108.10 MHz 10 nm / 19 km 267.57° 268.57° 3.00° 336 ft / 102 m (AMSL)
27 DME IGH 108.10 MHz 18 nm / 33 km - - - 336 ft / 102 m (AMSL)

Popular Alternatives